This is the latest recevied weather packets stored in our database for station/object HB9BTL-13. If no packets are shown the sender has not sent any weather packets the latest 10 day(s).
| Time | Temp. | Humidity | Pressure | Rain* | Wind** | Luminosity | Snow |
|---|---|---|---|---|---|---|---|
| 1777595236 | 12.78° C | 33% | 1024.6 hPa | - | - | - | - |
| 1777594331 | 12.78° C | 33% | 1024.5 hPa | - | - | - | - |
| 1777593425 | 13.33° C | 31% | 1024.3 hPa | - | - | - | - |
| 1777592521 | 13.33° C | 30% | 1024.3 hPa | - | - | - | - |
| 1777591615 | 13.33° C | 30% | 1024.1 hPa | - | - | - | - |
| 1777590710 | 13.33° C | 30% | 1024 hPa | - | - | - | - |
| 1777589804 | 13.89° C | 30% | 1024 hPa | - | - | - | - |
| 1777588899 | 13.89° C | 29% | 1024 hPa | - | - | - | - |
| 1777587993 | 13.89° C | 29% | 1024.1 hPa | - | - | - | - |
| 1777587088 | 14.44° C | 29% | 1024 hPa | - | - | - | - |
| 1777586182 | 14.44° C | 29% | 1023.9 hPa | - | - | - | - |
| 1777585277 | 14.44° C | 30% | 1023.8 hPa | - | - | - | - |
| 1777584371 | 14.44° C | 29% | 1023.7 hPa | - | - | - | - |
| 1777583466 | 14.44° C | 30% | 1023.7 hPa | - | - | - | - |
| 1777582561 | 13.89° C | 32% | 1023.8 hPa | - | - | - | - |
| 1777581656 | 13.89° C | 33% | 1023.8 hPa | - | - | - | - |
| 1777580750 | 13.89° C | 36% | 1023.6 hPa | - | - | - | - |
| 1777579844 | 13.89° C | 36% | 1023.5 hPa | - | - | - | - |
| 1777578940 | 15° C | 33% | 1023.2 hPa | - | - | - | - |
| 1777578034 | 15° C | 35% | 1023.2 hPa | - | - | - | - |
| 1777577129 | 15.56° C | 34% | 1022.9 hPa | - | - | - | - |
| 1777576223 | 16.67° C | 26% | 1022.6 hPa | - | - | - | - |
| 1777575318 | 16.11° C | 29% | 1022.4 hPa | - | - | - | - |
| 1777574412 | 17.22° C | 29% | 1022.4 hPa | - | - | - | - |
| 1777573507 | 17.22° C | 27% | 1022.3 hPa | - | - | - | - |
* Rain since midnight (hover to see other rain measurements)
** Current wind speed in m/s (hover to see current wind gust speed)